sensor_id;sensor_type;location;lat;lon;timestamp;temperature;humidity
40291;DHT22;26000;48.304;13.626;2023-04-24T00:02:22;13.60;99.90
40291;DHT22;26000;48.304;13.626;2023-04-24T00:04:49;13.50;99.90
40291;DHT22;26000;48.304;13.626;2023-04-24T00:07:15;13.60;99.90
40291;DHT22;26000;48.304;13.626;2023-04-24T00:09:42;13.50;99.90
40291;DHT22;26000;48.304;13.626;2023-04-24T00:12:08;13.60;99.90
40291;DHT22;26000;48.304;13.626;2023-04-24T00:14:34;13.50;99.90
40291;DHT22;26000;48.304;13.626;2023-04-24T00:17:00;13.40;99.90
40291;DHT22;26000;48.304;13.626;2023-04-24T00:19:28;13.30;99.90
40291;DHT22;26000;48.304;13.626;2023-04-24T00:21:54;13.30;99.90
40291;DHT22;26000;48.304;13.626;2023-04-24T00:24:20;13.30;99.90
40291;DHT22;26000;48.304;13.626;2023-04-24T00:26:46;13.30;99.90
40291;DHT22;26000;48.304;13.626;2023-04-24T00:29:11;13.30;99.90
40291;DHT22;26000;48.304;13.626;2023-04-24T00:31:37;13.30;99.90
40291;DHT22;26000;48.304;13.626;2023-04-24T00:34:03;13.40;99.90
40291;DHT22;26000;48.304;13.626;2023-04-24T00:36:30;13.30;99.90
40291;DHT22;26000;48.304;13.626;2023-04-24T00:38:56;13.30;99.90
40291;DHT22;26000;48.304;13.626;2023-04-24T00:41:22;13.20;99.90
40291;DHT22;26000;48.304;13.626;2023-04-24T00:43:49;13.30;99.90
40291;DHT22;26000;48.304;13.626;2023-04-24T00:46:16;13.30;99.90
40291;DHT22;26000;48.304;13.626;2023-04-24T00:48:43;13.30;99.90
40291;DHT22;26000;48.304;13.626;2023-04-24T00:51:09;13.30;99.90
40291;DHT22;26000;48.304;13.626;2023-04-24T00:53:34;13.20;99.90
40291;DHT22;26000;48.304;13.626;2023-04-24T00:56:01;13.20;99.90
40291;DHT22;26000;48.304;13.626;2023-04-24T00:58:27;13.10;99.90
40291;DHT22;26000;48.304;13.626;2023-04-24T01:00:54;13.20;99.90
40291;DHT22;26000;48.304;13.626;2023-04-24T01:03:22;13.20;99.90
40291;DHT22;26000;48.304;13.626;2023-04-24T01:05:50;13.10;99.90
40291;DHT22;26000;48.304;13.626;2023-04-24T01:08:16;13.20;99.90
40291;DHT22;26000;48.304;13.626;2023-04-24T01:10:43;13.10;99.90
40291;DHT22;26000;48.304;13.626;2023-04-24T01:13:09;13.20;99.90
40291;DHT22;26000;48.304;13.626;2023-04-24T01:15:35;13.10;99.90
40291;DHT22;26000;48.304;13.626;2023-04-24T01:18:01;13.10;99.90
40291;DHT22;26000;48.304;13.626;2023-04-24T01:20:27;13.10;99.90
40291;DHT22;26000;48.304;13.626;2023-04-24T01:22:56;13.20;99.90
40291;DHT22;26000;48.304;13.626;2023-04-24T01:25:23;13.20;99.90
40291;DHT22;26000;48.304;13.626;2023-04-24T01:27:50;13.10;99.90
40291;DHT22;26000;48.304;13.626;2023-04-24T01:30:16;13.10;99.90
40291;DHT22;26000;48.304;13.626;2023-04-24T01:32:43;13.20;99.90
40291;DHT22;26000;48.304;13.626;2023-04-24T01:35:10;13.10;99.90
40291;DHT22;26000;48.304;13.626;2023-04-24T01:37:35;13.10;99.90
40291;DHT22;26000;48.304;13.626;2023-04-24T01:40:04;13.10;99.90
40291;DHT22;26000;48.304;13.626;2023-04-24T01:42:30;13.10;99.90
40291;DHT22;26000;48.304;13.626;2023-04-24T01:44:56;13.10;99.90
40291;DHT22;26000;48.304;13.626;2023-04-24T01:47:23;13.10;99.90
40291;DHT22;26000;48.304;13.626;2023-04-24T01:49:50;13.10;99.90
40291;DHT22;26000;48.304;13.626;2023-04-24T01:52:16;13.20;99.90
40291;DHT22;26000;48.304;13.626;2023-04-24T01:54:44;13.10;99.90
40291;DHT22;26000;48.304;13.626;2023-04-24T01:57:09;13.10;99.90
40291;DHT22;26000;48.304;13.626;2023-04-24T01:59:35;13.20;99.90
40291;DHT22;26000;48.304;13.626;2023-04-24T02:02:02;13.20;99.90
40291;DHT22;26000;48.304;13.626;2023-04-24T02:04:28;13.20;99.90
40291;DHT22;26000;48.304;13.626;2023-04-24T02:06:53;13.20;99.90
40291;DHT22;26000;48.304;13.626;2023-04-24T02:09:19;13.20;99.90
40291;DHT22;26000;48.304;13.626;2023-04-24T02:11:44;13.20;99.90
40291;DHT22;26000;48.304;13.626;2023-04-24T02:14:10;13.10;99.90
40291;DHT22;26000;48.304;13.626;2023-04-24T02:16:36;13.10;99.90
40291;DHT22;26000;48.304;13.626;2023-04-24T02:19:02;13.10;99.90
40291;DHT22;26000;48.304;13.626;2023-04-24T02:21:28;13.10;99.90
40291;DHT22;26000;48.304;13.626;2023-04-24T02:23:54;13.20;99.90
40291;DHT22;26000;48.304;13.626;2023-04-24T02:26:19;13.20;99.90
40291;DHT22;26000;48.304;13.626;2023-04-24T02:28:45;13.10;99.90
40291;DHT22;26000;48.304;13.626;2023-04-24T02:31:11;13.10;99.90
40291;DHT22;26000;48.304;13.626;2023-04-24T02:33:36;13.10;99.90
40291;DHT22;26000;48.304;13.626;2023-04-24T02:36:02;13.00;99.90
40291;DHT22;26000;48.304;13.626;2023-04-24T02:38:28;13.00;99.90
40291;DHT22;26000;48.304;13.626;2023-04-24T02:40:54;13.00;99.90
40291;DHT22;26000;48.304;13.626;2023-04-24T02:43:20;12.90;99.90
40291;DHT22;26000;48.304;13.626;2023-04-24T02:45:45;12.90;99.90
40291;DHT22;26000;48.304;13.626;2023-04-24T02:48:11;12.90;99.90
40291;DHT22;26000;48.304;13.626;2023-04-24T02:50:37;13.00;99.90
40291;DHT22;26000;48.304;13.626;2023-04-24T02:53:03;13.00;99.90
40291;DHT22;26000;48.304;13.626;2023-04-24T02:55:29;12.90;99.90
40291;DHT22;26000;48.304;13.626;2023-04-24T02:57:55;12.90;99.90
40291;DHT22;26000;48.304;13.626;2023-04-24T03:00:21;12.80;99.90
40291;DHT22;26000;48.304;13.626;2023-04-24T03:02:47;12.80;99.90
40291;DHT22;26000;48.304;13.626;2023-04-24T03:05:13;12.80;99.90
40291;DHT22;26000;48.304;13.626;2023-04-24T03:07:39;12.80;99.90
40291;DHT22;26000;48.304;13.626;2023-04-24T03:10:05;12.80;99.90
40291;DHT22;26000;48.304;13.626;2023-04-24T03:12:31;12.70;99.90
40291;DHT22;26000;48.304;13.626;2023-04-24T03:14:57;12.80;99.90
40291;DHT22;26000;48.304;13.626;2023-04-24T03:17:22;12.80;99.90
40291;DHT22;26000;48.304;13.626;2023-04-24T03:19:48;12.70;99.90
40291;DHT22;26000;48.304;13.626;2023-04-24T03:22:13;12.80;99.90
40291;DHT22;26000;48.304;13.626;2023-04-24T03:24:39;12.80;99.90
40291;DHT22;26000;48.304;13.626;2023-04-24T03:27:05;12.80;99.90
40291;DHT22;26000;48.304;13.626;2023-04-24T03:29:31;12.80;99.90
40291;DHT22;26000;48.304;13.626;2023-04-24T03:31:56;12.70;99.90
40291;DHT22;26000;48.304;13.626;2023-04-24T03:34:22;12.60;99.90
40291;DHT22;26000;48.304;13.626;2023-04-24T03:36:47;12.70;99.90
40291;DHT22;26000;48.304;13.626;2023-04-24T03:39:13;12.80;99.90
40291;DHT22;26000;48.304;13.626;2023-04-24T03:41:39;12.70;99.90
40291;DHT22;26000;48.304;13.626;2023-04-24T03:44:05;12.70;99.90
40291;DHT22;26000;48.304;13.626;2023-04-24T03:46:31;12.70;99.90
40291;DHT22;26000;48.304;13.626;2023-04-24T03:48:56;12.70;99.90
40291;DHT22;26000;48.304;13.626;2023-04-24T03:51:22;12.70;99.90
40291;DHT22;26000;48.304;13.626;2023-04-24T03:53:48;12.70;99.90
40291;DHT22;26000;48.304;13.626;2023-04-24T03:56:14;12.70;99.90
40291;DHT22;26000;48.304;13.626;2023-04-24T03:58:40;12.70;99.90
40291;DHT22;26000;48.304;13.626;2023-04-24T04:01:05;12.60;99.90
40291;DHT22;26000;48.304;13.626;2023-04-24T04:03:31;12.60;99.90
40291;DHT22;26000;48.304;13.626;2023-04-24T04:05:57;12.60;99.90
40291;DHT22;26000;48.304;13.626;2023-04-24T04:08:23;12.70;99.90
40291;DHT22;26000;48.304;13.626;2023-04-24T04:10:49;12.60;99.90
40291;DHT22;26000;48.304;13.626;2023-04-24T04:13:15;12.70;99.90
40291;DHT22;26000;48.304;13.626;2023-04-24T04:15:41;12.60;99.90
40291;DHT22;26000;48.304;13.626;2023-04-24T04:18:06;12.50;99.90
40291;DHT22;26000;48.304;13.626;2023-04-24T04:20:32;12.60;99.90
40291;DHT22;26000;48.304;13.626;2023-04-24T04:22:57;12.60;99.90
40291;DHT22;26000;48.304;13.626;2023-04-24T04:25:23;12.50;99.90
40291;DHT22;26000;48.304;13.626;2023-04-24T04:27:49;12.50;99.90
40291;DHT22;26000;48.304;13.626;2023-04-24T04:30:16;12.50;99.90
40291;DHT22;26000;48.304;13.626;2023-04-24T04:32:43;12.50;99.90
40291;DHT22;26000;48.304;13.626;2023-04-24T04:35:09;12.50;99.90
40291;DHT22;26000;48.304;13.626;2023-04-24T04:37:35;12.40;99.90
40291;DHT22;26000;48.304;13.626;2023-04-24T04:40:02;12.40;99.90
40291;DHT22;26000;48.304;13.626;2023-04-24T04:42:36;12.40;99.90
40291;DHT22;26000;48.304;13.626;2023-04-24T04:45:08;12.40;99.90
40291;DHT22;26000;48.304;13.626;2023-04-24T04:47:34;12.40;99.90
40291;DHT22;26000;48.304;13.626;2023-04-24T04:50:00;12.30;99.90
40291;DHT22;26000;48.304;13.626;2023-04-24T04:52:26;12.30;99.90
40291;DHT22;26000;48.304;13.626;2023-04-24T04:54:52;12.30;99.90
40291;DHT22;26000;48.304;13.626;2023-04-24T04:57:18;12.20;99.90
40291;DHT22;26000;48.304;13.626;2023-04-24T04:59:43;12.20;99.90
40291;DHT22;26000;48.304;13.626;2023-04-24T05:02:09;12.10;99.90
40291;DHT22;26000;48.304;13.626;2023-04-24T05:04:34;12.10;99.90
40291;DHT22;26000;48.304;13.626;2023-04-24T05:07:00;12.10;99.90
40291;DHT22;26000;48.304;13.626;2023-04-24T05:09:26;12.10;99.90
40291;DHT22;26000;48.304;13.626;2023-04-24T05:11:53;12.20;99.90
40291;DHT22;26000;48.304;13.626;2023-04-24T05:14:18;12.10;99.90
40291;DHT22;26000;48.304;13.626;2023-04-24T05:16:44;12.00;99.90
40291;DHT22;26000;48.304;13.626;2023-04-24T05:19:10;12.10;99.90
40291;DHT22;26000;48.304;13.626;2023-04-24T05:21:37;12.00;99.90
40291;DHT22;26000;48.304;13.626;2023-04-24T05:24:04;12.00;99.90
40291;DHT22;26000;48.304;13.626;2023-04-24T05:26:30;12.00;99.90
40291;DHT22;26000;48.304;13.626;2023-04-24T05:28:56;12.00;99.90
40291;DHT22;26000;48.304;13.626;2023-04-24T05:31:21;12.10;99.90
40291;DHT22;26000;48.304;13.626;2023-04-24T05:33:47;12.00;99.90
40291;DHT22;26000;48.304;13.626;2023-04-24T05:36:12;12.00;99.90
40291;DHT22;26000;48.304;13.626;2023-04-24T05:38:38;12.10;99.90
40291;DHT22;26000;48.304;13.626;2023-04-24T05:41:04;12.00;99.90
40291;DHT22;26000;48.304;13.626;2023-04-24T05:43:30;12.10;99.90
40291;DHT22;26000;48.304;13.626;2023-04-24T05:45:55;12.10;99.90
40291;DHT22;26000;48.304;13.626;2023-04-24T05:48:21;12.10;99.90
40291;DHT22;26000;48.304;13.626;2023-04-24T05:50:48;12.10;99.90
40291;DHT22;26000;48.304;13.626;2023-04-24T05:53:13;12.20;99.90
40291;DHT22;26000;48.304;13.626;2023-04-24T05:55:39;12.20;99.90
40291;DHT22;26000;48.304;13.626;2023-04-24T05:58:05;12.20;99.90
40291;DHT22;26000;48.304;13.626;2023-04-24T06:00:31;12.20;99.90
40291;DHT22;26000;48.304;13.626;2023-04-24T06:02:57;12.30;99.90
40291;DHT22;26000;48.304;13.626;2023-04-24T06:05:24;12.40;99.90
40291;DHT22;26000;48.304;13.626;2023-04-24T06:07:49;12.30;99.90
40291;DHT22;26000;48.304;13.626;2023-04-24T06:10:15;12.20;99.90
40291;DHT22;26000;48.304;13.626;2023-04-24T06:12:41;12.20;99.90
40291;DHT22;26000;48.304;13.626;2023-04-24T06:15:07;12.30;99.90
40291;DHT22;26000;48.304;13.626;2023-04-24T06:17:32;12.20;99.90
40291;DHT22;26000;48.304;13.626;2023-04-24T06:19:58;12.20;99.90
40291;DHT22;26000;48.304;13.626;2023-04-24T06:22:23;12.30;99.90
40291;DHT22;26000;48.304;13.626;2023-04-24T06:24:49;12.30;99.90
40291;DHT22;26000;48.304;13.626;2023-04-24T06:27:15;12.40;99.90
40291;DHT22;26000;48.304;13.626;2023-04-24T06:29:40;12.30;99.90
40291;DHT22;26000;48.304;13.626;2023-04-24T06:32:06;12.30;99.90
40291;DHT22;26000;48.304;13.626;2023-04-24T06:34:32;12.30;99.90
40291;DHT22;26000;48.304;13.626;2023-04-24T06:36:59;12.20;99.90
40291;DHT22;26000;48.304;13.626;2023-04-24T06:39:25;12.40;99.90
40291;DHT22;26000;48.304;13.626;2023-04-24T06:41:51;12.30;99.90
40291;DHT22;26000;48.304;13.626;2023-04-24T06:44:16;12.40;99.90
40291;DHT22;26000;48.304;13.626;2023-04-24T06:46:42;12.40;99.90
40291;DHT22;26000;48.304;13.626;2023-04-24T06:49:07;12.50;99.90
40291;DHT22;26000;48.304;13.626;2023-04-24T06:51:33;12.40;99.90
40291;DHT22;26000;48.304;13.626;2023-04-24T06:53:59;12.40;99.90
40291;DHT22;26000;48.304;13.626;2023-04-24T06:56:25;12.30;99.90
40291;DHT22;26000;48.304;13.626;2023-04-24T06:58:51;12.50;99.90
40291;DHT22;26000;48.304;13.626;2023-04-24T07:01:17;12.40;99.90
40291;DHT22;26000;48.304;13.626;2023-04-24T07:03:43;12.50;99.90
40291;DHT22;26000;48.304;13.626;2023-04-24T07:06:09;12.40;99.90
40291;DHT22;26000;48.304;13.626;2023-04-24T07:08:36;12.40;99.90
40291;DHT22;26000;48.304;13.626;2023-04-24T07:11:02;12.50;99.90
40291;DHT22;26000;48.304;13.626;2023-04-24T07:13:28;12.50;99.90
40291;DHT22;26000;48.304;13.626;2023-04-24T07:15:54;12.40;99.90
40291;DHT22;26000;48.304;13.626;2023-04-24T07:18:23;12.40;99.90
40291;DHT22;26000;48.304;13.626;2023-04-24T07:20:49;12.40;99.90
40291;DHT22;26000;48.304;13.626;2023-04-24T07:23:18;12.50;99.90
40291;DHT22;26000;48.304;13.626;2023-04-24T07:25:43;12.60;99.90
40291;DHT22;26000;48.304;13.626;2023-04-24T07:28:09;12.60;99.90
40291;DHT22;26000;48.304;13.626;2023-04-24T07:30:35;12.60;99.90
40291;DHT22;26000;48.304;13.626;2023-04-24T07:33:00;12.60;99.90
40291;DHT22;26000;48.304;13.626;2023-04-24T07:35:26;12.60;99.90
40291;DHT22;26000;48.304;13.626;2023-04-24T07:37:55;12.70;99.90
40291;DHT22;26000;48.304;13.626;2023-04-24T07:40:21;12.70;99.90
40291;DHT22;26000;48.304;13.626;2023-04-24T07:42:47;12.80;99.90
40291;DHT22;26000;48.304;13.626;2023-04-24T07:45:14;12.80;99.90
40291;DHT22;26000;48.304;13.626;2023-04-24T07:47:41;12.80;99.90
40291;DHT22;26000;48.304;13.626;2023-04-24T07:50:09;12.90;99.90
40291;DHT22;26000;48.304;13.626;2023-04-24T07:52:35;12.90;99.90
40291;DHT22;26000;48.304;13.626;2023-04-24T07:55:01;12.90;99.90
40291;DHT22;26000;48.304;13.626;2023-04-24T07:57:28;12.90;99.90
40291;DHT22;26000;48.304;13.626;2023-04-24T07:59:54;13.00;99.90
40291;DHT22;26000;48.304;13.626;2023-04-24T08:02:20;13.10;99.90
40291;DHT22;26000;48.304;13.626;2023-04-24T08:04:54;13.20;99.90
40291;DHT22;26000;48.304;13.626;2023-04-24T08:07:20;13.20;99.90
40291;DHT22;26000;48.304;13.626;2023-04-24T08:09:45;13.30;99.90
40291;DHT22;26000;48.304;13.626;2023-04-24T08:12:11;13.30;99.90
40291;DHT22;26000;48.304;13.626;2023-04-24T08:14:37;13.50;99.90
40291;DHT22;26000;48.304;13.626;2023-04-24T08:17:02;13.60;99.90
40291;DHT22;26000;48.304;13.626;2023-04-24T08:19:28;13.60;99.90
40291;DHT22;26000;48.304;13.626;2023-04-24T08:21:54;13.60;99.90
40291;DHT22;26000;48.304;13.626;2023-04-24T08:24:20;13.70;99.90
40291;DHT22;26000;48.304;13.626;2023-04-24T08:26:46;13.80;99.90
40291;DHT22;26000;48.304;13.626;2023-04-24T08:29:11;13.70;99.90
40291;DHT22;26000;48.304;13.626;2023-04-24T08:31:37;13.80;99.90
40291;DHT22;26000;48.304;13.626;2023-04-24T08:34:02;13.80;99.90
40291;DHT22;26000;48.304;13.626;2023-04-24T08:36:28;13.80;99.90
40291;DHT22;26000;48.304;13.626;2023-04-24T08:38:54;13.90;99.90
40291;DHT22;26000;48.304;13.626;2023-04-24T08:41:20;14.00;99.90
40291;DHT22;26000;48.304;13.626;2023-04-24T08:43:46;14.10;99.90
40291;DHT22;26000;48.304;13.626;2023-04-24T08:46:13;14.10;99.90
40291;DHT22;26000;48.304;13.626;2023-04-24T08:48:39;14.10;99.90
40291;DHT22;26000;48.304;13.626;2023-04-24T08:51:07;14.10;99.90
40291;DHT22;26000;48.304;13.626;2023-04-24T08:53:35;14.10;99.90
40291;DHT22;26000;48.304;13.626;2023-04-24T08:56:01;14.30;99.90
40291;DHT22;26000;48.304;13.626;2023-04-24T08:58:28;14.40;99.90
40291;DHT22;26000;48.304;13.626;2023-04-24T09:00:57;14.50;99.90
40291;DHT22;26000;48.304;13.626;2023-04-24T09:03:24;14.50;99.90
40291;DHT22;26000;48.304;13.626;2023-04-24T09:05:50;14.60;99.90
40291;DHT22;26000;48.304;13.626;2023-04-24T09:08:18;14.40;99.90
40291;DHT22;26000;48.304;13.626;2023-04-24T09:10:44;14.40;99.90
40291;DHT22;26000;48.304;13.626;2023-04-24T09:13:10;14.20;99.90
40291;DHT22;26000;48.304;13.626;2023-04-24T09:15:37;14.10;99.90
40291;DHT22;26000;48.304;13.626;2023-04-24T09:18:03;14.20;99.90
40291;DHT22;26000;48.304;13.626;2023-04-24T09:20:29;14.20;99.90
40291;DHT22;26000;48.304;13.626;2023-04-24T09:22:57;14.30;99.90
40291;DHT22;26000;48.304;13.626;2023-04-24T09:25:30;14.40;99.90
40291;DHT22;26000;48.304;13.626;2023-04-24T09:28:00;14.30;99.90
40291;DHT22;26000;48.304;13.626;2023-04-24T09:30:26;14.40;99.90
40291;DHT22;26000;48.304;13.626;2023-04-24T09:33:10;14.50;99.90
40291;DHT22;26000;48.304;13.626;2023-04-24T09:35:36;14.60;99.90
40291;DHT22;26000;48.304;13.626;2023-04-24T09:38:01;14.70;99.90
40291;DHT22;26000;48.304;13.626;2023-04-24T09:40:27;15.00;99.90
40291;DHT22;26000;48.304;13.626;2023-04-24T09:42:55;15.30;99.90
40291;DHT22;26000;48.304;13.626;2023-04-24T09:45:37;15.60;99.90
40291;DHT22;26000;48.304;13.626;2023-04-24T09:48:03;15.90;99.90
40291;DHT22;26000;48.304;13.626;2023-04-24T09:50:31;15.80;99.90
40291;DHT22;26000;48.304;13.626;2023-04-24T09:53:03;15.80;99.90
40291;DHT22;26000;48.304;13.626;2023-04-24T09:55:29;15.60;99.90
40291;DHT22;26000;48.304;13.626;2023-04-24T09:57:57;15.40;99.90
40291;DHT22;26000;48.304;13.626;2023-04-24T10:00:28;15.50;99.90
40291;DHT22;26000;48.304;13.626;2023-04-24T10:03:05;15.50;99.90
40291;DHT22;26000;48.304;13.626;2023-04-24T10:05:33;15.40;99.90
40291;DHT22;26000;48.304;13.626;2023-04-24T10:08:08;15.30;99.90
40291;DHT22;26000;48.304;13.626;2023-04-24T10:10:46;15.20;99.90
40291;DHT22;26000;48.304;13.626;2023-04-24T10:13:13;15.10;99.90
40291;DHT22;26000;48.304;13.626;2023-04-24T10:15:41;15.10;99.90
40291;DHT22;26000;48.304;13.626;2023-04-24T10:18:07;15.00;99.90
40291;DHT22;26000;48.304;13.626;2023-04-24T10:20:35;15.00;99.90
40291;DHT22;26000;48.304;13.626;2023-04-24T10:23:02;15.10;99.90
40291;DHT22;26000;48.304;13.626;2023-04-24T10:25:30;15.10;99.90
40291;DHT22;26000;48.304;13.626;2023-04-24T10:27:57;15.00;99.90
40291;DHT22;26000;48.304;13.626;2023-04-24T10:30:32;15.20;99.90
40291;DHT22;26000;48.304;13.626;2023-04-24T10:33:02;15.20;99.90
40291;DHT22;26000;48.304;13.626;2023-04-24T10:35:31;15.30;99.90
40291;DHT22;26000;48.304;13.626;2023-04-24T10:38:07;15.40;99.90
40291;DHT22;26000;48.304;13.626;2023-04-24T10:40:35;15.30;99.90
40291;DHT22;26000;48.304;13.626;2023-04-24T10:43:05;15.40;99.90
40291;DHT22;26000;48.304;13.626;2023-04-24T10:45:34;15.40;99.90
40291;DHT22;26000;48.304;13.626;2023-04-24T10:48:05;15.40;99.90
40291;DHT22;26000;48.304;13.626;2023-04-24T10:50:52;15.40;99.90
40291;DHT22;26000;48.304;13.626;2023-04-24T10:53:23;15.30;99.90
40291;DHT22;26000;48.304;13.626;2023-04-24T10:55:51;15.30;99.90
40291;DHT22;26000;48.304;13.626;2023-04-24T10:58:22;15.50;99.90
40291;DHT22;26000;48.304;13.626;2023-04-24T11:00:56;15.60;99.90
40291;DHT22;26000;48.304;13.626;2023-04-24T11:03:29;15.60;99.90
40291;DHT22;26000;48.304;13.626;2023-04-24T11:08:42;15.90;99.90
40291;DHT22;26000;48.304;13.626;2023-04-24T11:11:10;15.80;99.90
40291;DHT22;26000;48.304;13.626;2023-04-24T11:16:20;15.70;99.90
40291;DHT22;26000;48.304;13.626;2023-04-24T11:19:00;15.50;99.90
40291;DHT22;26000;48.304;13.626;2023-04-24T11:21:44;15.20;99.90
40291;DHT22;26000;48.304;13.626;2023-04-24T11:34:53;14.00;99.90
40291;DHT22;26000;48.304;13.626;2023-04-24T11:37:19;13.80;99.90
40291;DHT22;26000;48.304;13.626;2023-04-24T11:39:44;13.70;99.90
40291;DHT22;26000;48.304;13.626;2023-04-24T11:42:10;13.70;99.90
40291;DHT22;26000;48.304;13.626;2023-04-24T11:44:39;13.60;99.90
40291;DHT22;26000;48.304;13.626;2023-04-24T11:47:06;13.60;99.90
40291;DHT22;26000;48.304;13.626;2023-04-24T11:49:32;13.70;99.90
40291;DHT22;26000;48.304;13.626;2023-04-24T11:51:59;13.70;99.90
40291;DHT22;26000;48.304;13.626;2023-04-24T11:54:26;13.70;99.90
40291;DHT22;26000;48.304;13.626;2023-04-24T11:56:51;13.80;99.90
40291;DHT22;26000;48.304;13.626;2023-04-24T11:59:17;13.90;99.90
40291;DHT22;26000;48.304;13.626;2023-04-24T12:01:46;14.00;99.90
40291;DHT22;26000;48.304;13.626;2023-04-24T12:04:12;14.10;99.90
40291;DHT22;26000;48.304;13.626;2023-04-24T12:06:38;14.20;99.90
40291;DHT22;26000;48.304;13.626;2023-04-24T12:09:04;14.40;99.90
40291;DHT22;26000;48.304;13.626;2023-04-24T12:11:30;14.60;99.90
40291;DHT22;26000;48.304;13.626;2023-04-24T12:13:56;14.80;99.90
40291;DHT22;26000;48.304;13.626;2023-04-24T12:16:21;15.00;99.90
40291;DHT22;26000;48.304;13.626;2023-04-24T12:18:47;15.00;99.90
40291;DHT22;26000;48.304;13.626;2023-04-24T12:21:20;15.10;99.90
40291;DHT22;26000;48.304;13.626;2023-04-24T12:23:46;15.10;99.90
40291;DHT22;26000;48.304;13.626;2023-04-24T12:26:16;15.10;99.90
40291;DHT22;26000;48.304;13.626;2023-04-24T12:28:43;15.20;99.90
40291;DHT22;26000;48.304;13.626;2023-04-24T12:31:08;15.40;99.90
40291;DHT22;26000;48.304;13.626;2023-04-24T12:33:35;15.50;99.90
40291;DHT22;26000;48.304;13.626;2023-04-24T12:36:01;15.70;99.90
40291;DHT22;26000;48.304;13.626;2023-04-24T12:38:28;15.90;99.90
40291;DHT22;26000;48.304;13.626;2023-04-24T12:41:09;15.90;99.90
40291;DHT22;26000;48.304;13.626;2023-04-24T12:43:35;16.10;99.90
40291;DHT22;26000;48.304;13.626;2023-04-24T12:46:01;16.10;99.90
40291;DHT22;26000;48.304;13.626;2023-04-24T12:48:28;16.20;99.90
40291;DHT22;26000;48.304;13.626;2023-04-24T12:50:54;16.10;99.90
40291;DHT22;26000;48.304;13.626;2023-04-24T12:53:21;16.00;99.90
40291;DHT22;26000;48.304;13.626;2023-04-24T12:55:47;16.10;99.90
40291;DHT22;26000;48.304;13.626;2023-04-24T12:58:19;16.20;99.90
40291;DHT22;26000;48.304;13.626;2023-04-24T13:00:45;16.30;99.90
40291;DHT22;26000;48.304;13.626;2023-04-24T13:03:12;16.30;99.90
40291;DHT22;26000;48.304;13.626;2023-04-24T13:05:37;16.40;99.90
40291;DHT22;26000;48.304;13.626;2023-04-24T13:08:03;16.40;99.90
40291;DHT22;26000;48.304;13.626;2023-04-24T13:10:28;16.40;99.90
40291;DHT22;26000;48.304;13.626;2023-04-24T13:12:54;16.30;99.90
40291;DHT22;26000;48.304;13.626;2023-04-24T13:15:20;16.10;99.90
40291;DHT22;26000;48.304;13.626;2023-04-24T13:17:46;16.00;99.90
40291;DHT22;26000;48.304;13.626;2023-04-24T13:20:11;16.00;99.90
40291;DHT22;26000;48.304;13.626;2023-04-24T13:22:37;15.90;99.90
40291;DHT22;26000;48.304;13.626;2023-04-24T13:25:03;15.90;99.90
40291;DHT22;26000;48.304;13.626;2023-04-24T13:27:31;15.70;99.90
40291;DHT22;26000;48.304;13.626;2023-04-24T13:29:56;15.70;99.90
40291;DHT22;26000;48.304;13.626;2023-04-24T13:32:22;15.60;99.90
40291;DHT22;26000;48.304;13.626;2023-04-24T13:34:48;15.60;99.90
40291;DHT22;26000;48.304;13.626;2023-04-24T13:37:13;15.50;99.90
40291;DHT22;26000;48.304;13.626;2023-04-24T13:39:39;15.40;99.90
40291;DHT22;26000;48.304;13.626;2023-04-24T13:42:06;15.30;99.90
40291;DHT22;26000;48.304;13.626;2023-04-24T13:44:32;15.20;99.90
40291;DHT22;26000;48.304;13.626;2023-04-24T13:46:58;15.20;99.90
40291;DHT22;26000;48.304;13.626;2023-04-24T13:49:24;15.10;99.90
40291;DHT22;26000;48.304;13.626;2023-04-24T13:51:51;14.90;99.90
40291;DHT22;26000;48.304;13.626;2023-04-24T13:54:17;14.80;99.90
40291;DHT22;26000;48.304;13.626;2023-04-24T13:56:43;14.80;99.90
40291;DHT22;26000;48.304;13.626;2023-04-24T13:59:08;14.70;99.90
40291;DHT22;26000;48.304;13.626;2023-04-24T14:01:34;14.60;99.90
40291;DHT22;26000;48.304;13.626;2023-04-24T14:04:00;14.50;99.90
40291;DHT22;26000;48.304;13.626;2023-04-24T14:06:26;14.20;99.90
40291;DHT22;26000;48.304;13.626;2023-04-24T14:08:52;13.90;99.90
40291;DHT22;26000;48.304;13.626;2023-04-24T14:11:18;13.60;99.90
40291;DHT22;26000;48.304;13.626;2023-04-24T14:13:45;13.40;99.90
40291;DHT22;26000;48.304;13.626;2023-04-24T14:16:11;13.20;99.90
40291;DHT22;26000;48.304;13.626;2023-04-24T14:18:37;13.10;99.90
40291;DHT22;26000;48.304;13.626;2023-04-24T14:21:06;13.10;99.90
40291;DHT22;26000;48.304;13.626;2023-04-24T14:23:32;13.10;99.90
40291;DHT22;26000;48.304;13.626;2023-04-24T14:25:58;13.10;99.90
40291;DHT22;26000;48.304;13.626;2023-04-24T14:28:23;13.20;99.90
40291;DHT22;26000;48.304;13.626;2023-04-24T14:30:49;13.20;99.90
40291;DHT22;26000;48.304;13.626;2023-04-24T14:33:15;13.20;99.90
40291;DHT22;26000;48.304;13.626;2023-04-24T14:35:41;13.30;99.90
40291;DHT22;26000;48.304;13.626;2023-04-24T14:38:10;13.40;99.90
40291;DHT22;26000;48.304;13.626;2023-04-24T14:40:36;13.50;99.90
40291;DHT22;26000;48.304;13.626;2023-04-24T14:43:02;13.60;99.90
40291;DHT22;26000;48.304;13.626;2023-04-24T14:45:27;13.60;99.90
40291;DHT22;26000;48.304;13.626;2023-04-24T14:47:53;13.60;99.90
40291;DHT22;26000;48.304;13.626;2023-04-24T14:50:20;13.60;99.90
40291;DHT22;26000;48.304;13.626;2023-04-24T14:52:45;13.70;99.90
40291;DHT22;26000;48.304;13.626;2023-04-24T14:55:12;13.70;99.90
40291;DHT22;26000;48.304;13.626;2023-04-24T14:57:37;13.70;99.90
40291;DHT22;26000;48.304;13.626;2023-04-24T15:00:05;13.80;99.90
40291;DHT22;26000;48.304;13.626;2023-04-24T15:02:33;13.90;99.90
40291;DHT22;26000;48.304;13.626;2023-04-24T15:04:59;14.10;99.90
40291;DHT22;26000;48.304;13.626;2023-04-24T15:07:25;14.10;99.90
40291;DHT22;26000;48.304;13.626;2023-04-24T15:09:50;14.30;99.90
40291;DHT22;26000;48.304;13.626;2023-04-24T15:12:16;14.40;99.90
40291;DHT22;26000;48.304;13.626;2023-04-24T15:14:42;14.50;99.90
40291;DHT22;26000;48.304;13.626;2023-04-24T15:17:07;14.60;99.90
40291;DHT22;26000;48.304;13.626;2023-04-24T15:19:33;14.70;99.90
40291;DHT22;26000;48.304;13.626;2023-04-24T15:21:58;14.70;99.90
40291;DHT22;26000;48.304;13.626;2023-04-24T15:24:24;14.70;99.90
40291;DHT22;26000;48.304;13.626;2023-04-24T15:26:50;14.70;99.90
40291;DHT22;26000;48.304;13.626;2023-04-24T15:29:16;14.80;99.90